sensor_id;sensor_type;location;lat;lon;timestamp;P1;durP1;ratioP1;P2;durP2;ratioP2
20669;SDS011;10494;50.868;4.180;2024-02-15T00:01:38;23.33;;;5.57;;
20669;SDS011;10494;50.868;4.180;2024-02-15T00:04:04;16.95;;;6.10;;
20669;SDS011;10494;50.868;4.180;2024-02-15T00:06:31;16.25;;;5.68;;
20669;SDS011;10494;50.868;4.180;2024-02-15T00:08:57;23.08;;;6.50;;
20669;SDS011;10494;50.868;4.180;2024-02-15T00:11:22;15.93;;;6.82;;
20669;SDS011;10494;50.868;4.180;2024-02-15T00:13:48;20.20;;;5.97;;
20669;SDS011;10494;50.868;4.180;2024-02-15T00:16:13;25.52;;;7.15;;
20669;SDS011;10494;50.868;4.180;2024-02-15T00:18:42;25.73;;;6.47;;
20669;SDS011;10494;50.868;4.180;2024-02-15T00:21:08;19.42;;;6.15;;
20669;SDS011;10494;50.868;4.180;2024-02-15T00:23:33;21.33;;;7.00;;
20669;SDS011;10494;50.868;4.180;2024-02-15T00:25:59;23.27;;;6.70;;
20669;SDS011;10494;50.868;4.180;2024-02-15T00:28:25;18.27;;;6.47;;
20669;SDS011;10494;50.868;4.180;2024-02-15T00:30:52;23.08;;;6.72;;
20669;SDS011;10494;50.868;4.180;2024-02-15T00:33:18;20.70;;;6.40;;
20669;SDS011;10494;50.868;4.180;2024-02-15T00:35:43;18.35;;;7.38;;
20669;SDS011;10494;50.868;4.180;2024-02-15T00:38:09;19.58;;;6.00;;
20669;SDS011;10494;50.868;4.180;2024-02-15T00:40:34;24.10;;;6.97;;
20669;SDS011;10494;50.868;4.180;2024-02-15T00:43:00;22.42;;;7.30;;
20669;SDS011;10494;50.868;4.180;2024-02-15T00:45:26;18.55;;;6.05;;
20669;SDS011;10494;50.868;4.180;2024-02-15T00:47:51;18.60;;;6.32;;
20669;SDS011;10494;50.868;4.180;2024-02-15T00:50:18;21.73;;;7.20;;
20669;SDS011;10494;50.868;4.180;2024-02-15T00:52:44;23.63;;;6.68;;
20669;SDS011;10494;50.868;4.180;2024-02-15T00:55:09;22.25;;;6.00;;
20669;SDS011;10494;50.868;4.180;2024-02-15T00:57:35;19.58;;;5.35;;
20669;SDS011;10494;50.868;4.180;2024-02-15T01:00:00;19.05;;;5.70;;
20669;SDS011;10494;50.868;4.180;2024-02-15T01:02:28;19.52;;;6.07;;
20669;SDS011;10494;50.868;4.180;2024-02-15T01:04:54;16.75;;;5.25;;
20669;SDS011;10494;50.868;4.180;2024-02-15T01:07:22;24.08;;;6.50;;
20669;SDS011;10494;50.868;4.180;2024-02-15T01:09:51;20.98;;;6.07;;
20669;SDS011;10494;50.868;4.180;2024-02-15T01:12:16;16.52;;;6.22;;
20669;SDS011;10494;50.868;4.180;2024-02-15T01:14:42;11.90;;;4.95;;
20669;SDS011;10494;50.868;4.180;2024-02-15T01:17:08;12.63;;;5.93;;
20669;SDS011;10494;50.868;4.180;2024-02-15T01:19:33;18.50;;;6.38;;
20669;SDS011;10494;50.868;4.180;2024-02-15T01:22:00;19.55;;;5.68;;
20669;SDS011;10494;50.868;4.180;2024-02-15T01:24:25;21.50;;;5.00;;
20669;SDS011;10494;50.868;4.180;2024-02-15T01:26:51;18.60;;;5.30;;
20669;SDS011;10494;50.868;4.180;2024-02-15T01:29:18;16.85;;;4.90;;
20669;SDS011;10494;50.868;4.180;2024-02-15T01:31:43;18.45;;;5.07;;
20669;SDS011;10494;50.868;4.180;2024-02-15T01:34:09;13.40;;;4.70;;
20669;SDS011;10494;50.868;4.180;2024-02-15T01:36:35;21.75;;;5.03;;
20669;SDS011;10494;50.868;4.180;2024-02-15T01:39:01;16.17;;;4.68;;
20669;SDS011;10494;50.868;4.180;2024-02-15T01:41:26;12.77;;;4.88;;
20669;SDS011;10494;50.868;4.180;2024-02-15T01:43:52;18.75;;;5.25;;
20669;SDS011;10494;50.868;4.180;2024-02-15T01:46:17;11.57;;;4.43;;
20669;SDS011;10494;50.868;4.180;2024-02-15T01:48:45;14.00;;;4.50;;
20669;SDS011;10494;50.868;4.180;2024-02-15T01:51:12;13.93;;;4.03;;
20669;SDS011;10494;50.868;4.180;2024-02-15T01:53:41;22.13;;;5.22;;
20669;SDS011;10494;50.868;4.180;2024-02-15T01:56:07;12.57;;;4.30;;
20669;SDS011;10494;50.868;4.180;2024-02-15T01:58:33;13.55;;;4.03;;
20669;SDS011;10494;50.868;4.180;2024-02-15T02:01:00;13.90;;;4.55;;
20669;SDS011;10494;50.868;4.180;2024-02-15T02:03:27;12.73;;;4.15;;
20669;SDS011;10494;50.868;4.180;2024-02-15T02:05:52;12.30;;;4.07;;
20669;SDS011;10494;50.868;4.180;2024-02-15T02:08:18;16.30;;;4.57;;
20669;SDS011;10494;50.868;4.180;2024-02-15T02:10:43;12.75;;;4.38;;
20669;SDS011;10494;50.868;4.180;2024-02-15T02:13:10;15.23;;;3.95;;
20669;SDS011;10494;50.868;4.180;2024-02-15T02:15:36;21.40;;;5.05;;
20669;SDS011;10494;50.868;4.180;2024-02-15T02:18:02;15.25;;;4.47;;
20669;SDS011;10494;50.868;4.180;2024-02-15T02:20:33;13.20;;;5.03;;
20669;SDS011;10494;50.868;4.180;2024-02-15T02:23:03;14.88;;;4.57;;
20669;SDS011;10494;50.868;4.180;2024-02-15T02:25:33;14.55;;;4.55;;
20669;SDS011;10494;50.868;4.180;2024-02-15T02:27:59;13.18;;;4.07;;
20669;SDS011;10494;50.868;4.180;2024-02-15T02:30:25;18.63;;;5.30;;
20669;SDS011;10494;50.868;4.180;2024-02-15T02:32:54;14.88;;;4.65;;
20669;SDS011;10494;50.868;4.180;2024-02-15T02:35:21;17.73;;;4.60;;
20669;SDS011;10494;50.868;4.180;2024-02-15T02:37:47;12.85;;;5.25;;
20669;SDS011;10494;50.868;4.180;2024-02-15T02:40:13;17.00;;;5.68;;
20669;SDS011;10494;50.868;4.180;2024-02-15T02:42:48;15.43;;;4.50;;
20669;SDS011;10494;50.868;4.180;2024-02-15T02:45:17;14.63;;;4.20;;
20669;SDS011;10494;50.868;4.180;2024-02-15T02:47:45;13.02;;;4.78;;
20669;SDS011;10494;50.868;4.180;2024-02-15T02:50:12;15.35;;;4.72;;
20669;SDS011;10494;50.868;4.180;2024-02-15T02:52:38;16.85;;;4.43;;
20669;SDS011;10494;50.868;4.180;2024-02-15T02:55:04;18.10;;;4.80;;
20669;SDS011;10494;50.868;4.180;2024-02-15T02:57:33;11.25;;;4.05;;
20669;SDS011;10494;50.868;4.180;2024-02-15T03:00:02;10.63;;;4.57;;
20669;SDS011;10494;50.868;4.180;2024-02-15T03:02:37;15.75;;;4.97;;
20669;SDS011;10494;50.868;4.180;2024-02-15T03:05:07;13.60;;;5.38;;
20669;SDS011;10494;50.868;4.180;2024-02-15T03:07:33;18.80;;;5.05;;
20669;SDS011;10494;50.868;4.180;2024-02-15T03:10:02;17.35;;;4.93;;
20669;SDS011;10494;50.868;4.180;2024-02-15T03:12:29;17.70;;;4.90;;
20669;SDS011;10494;50.868;4.180;2024-02-15T03:14:55;11.48;;;4.80;;
20669;SDS011;10494;50.868;4.180;2024-02-15T03:17:22;21.55;;;5.88;;
20669;SDS011;10494;50.868;4.180;2024-02-15T03:19:48;11.70;;;4.82;;
20669;SDS011;10494;50.868;4.180;2024-02-15T03:22:14;13.82;;;5.28;;
20669;SDS011;10494;50.868;4.180;2024-02-15T03:24:40;16.52;;;5.57;;
20669;SDS011;10494;50.868;4.180;2024-02-15T03:27:06;12.23;;;5.13;;
20669;SDS011;10494;50.868;4.180;2024-02-15T03:29:32;15.13;;;5.70;;
20669;SDS011;10494;50.868;4.180;2024-02-15T03:32:00;18.17;;;5.28;;
20669;SDS011;10494;50.868;4.180;2024-02-15T03:34:26;15.98;;;5.35;;
20669;SDS011;10494;50.868;4.180;2024-02-15T03:36:52;13.50;;;4.45;;
20669;SDS011;10494;50.868;4.180;2024-02-15T03:39:19;14.32;;;4.95;;
20669;SDS011;10494;50.868;4.180;2024-02-15T03:41:45;12.73;;;3.97;;
20669;SDS011;10494;50.868;4.180;2024-02-15T03:44:11;16.33;;;5.32;;
20669;SDS011;10494;50.868;4.180;2024-02-15T03:46:37;15.10;;;4.15;;
20669;SDS011;10494;50.868;4.180;2024-02-15T03:49:03;13.35;;;4.28;;
20669;SDS011;10494;50.868;4.180;2024-02-15T03:51:28;12.18;;;4.55;;
20669;SDS011;10494;50.868;4.180;2024-02-15T03:53:54;11.05;;;4.50;;
20669;SDS011;10494;50.868;4.180;2024-02-15T03:56:20;9.32;;;3.67;;
20669;SDS011;10494;50.868;4.180;2024-02-15T03:58:48;13.30;;;3.88;;
20669;SDS011;10494;50.868;4.180;2024-02-15T04:01:15;13.40;;;3.83;;
20669;SDS011;10494;50.868;4.180;2024-02-15T04:03:41;11.05;;;3.63;;
20669;SDS011;10494;50.868;4.180;2024-02-15T04:06:07;4.88;;;2.78;;
20669;SDS011;10494;50.868;4.180;2024-02-15T04:08:32;7.95;;;2.72;;
20669;SDS011;10494;50.868;4.180;2024-02-15T04:10:58;14.43;;;3.50;;
20669;SDS011;10494;50.868;4.180;2024-02-15T04:13:24;5.72;;;3.35;;
20669;SDS011;10494;50.868;4.180;2024-02-15T04:15:50;7.57;;;3.00;;
20669;SDS011;10494;50.868;4.180;2024-02-15T04:18:17;8.55;;;3.03;;
20669;SDS011;10494;50.868;4.180;2024-02-15T04:20:44;7.75;;;2.70;;
20669;SDS011;10494;50.868;4.180;2024-02-15T04:23:11;9.52;;;2.85;;
20669;SDS011;10494;50.868;4.180;2024-02-15T04:25:37;8.10;;;3.20;;
20669;SDS011;10494;50.868;4.180;2024-02-15T04:28:04;13.32;;;3.38;;
20669;SDS011;10494;50.868;4.180;2024-02-15T04:30:30;10.05;;;3.75;;
20669;SDS011;10494;50.868;4.180;2024-02-15T04:32:56;12.10;;;4.68;;
20669;SDS011;10494;50.868;4.180;2024-02-15T04:35:21;14.43;;;4.25;;
20669;SDS011;10494;50.868;4.180;2024-02-15T04:37:47;11.77;;;4.85;;
20669;SDS011;10494;50.868;4.180;2024-02-15T04:40:14;16.30;;;5.22;;
20669;SDS011;10494;50.868;4.180;2024-02-15T04:42:40;19.88;;;5.88;;
20669;SDS011;10494;50.868;4.180;2024-02-15T04:45:06;15.93;;;4.93;;
20669;SDS011;10494;50.868;4.180;2024-02-15T04:47:34;17.50;;;5.00;;
20669;SDS011;10494;50.868;4.180;2024-02-15T04:50:00;13.50;;;4.45;;
20669;SDS011;10494;50.868;4.180;2024-02-15T04:52:27;14.48;;;3.95;;
20669;SDS011;10494;50.868;4.180;2024-02-15T04:54:53;13.85;;;4.55;;
20669;SDS011;10494;50.868;4.180;2024-02-15T04:57:23;13.68;;;4.75;;
20669;SDS011;10494;50.868;4.180;2024-02-15T04:59:55;17.38;;;4.45;;
20669;SDS011;10494;50.868;4.180;2024-02-15T05:02:20;16.38;;;5.25;;
20669;SDS011;10494;50.868;4.180;2024-02-15T05:04:49;20.30;;;4.80;;
20669;SDS011;10494;50.868;4.180;2024-02-15T05:07:20;14.90;;;3.83;;
20669;SDS011;10494;50.868;4.180;2024-02-15T05:09:47;14.52;;;4.40;;
20669;SDS011;10494;50.868;4.180;2024-02-15T05:12:23;9.35;;;3.60;;
20669;SDS011;10494;50.868;4.180;2024-02-15T05:14:52;14.98;;;4.03;;
20669;SDS011;10494;50.868;4.180;2024-02-15T05:17:18;9.75;;;3.58;;
20669;SDS011;10494;50.868;4.180;2024-02-15T05:19:44;10.60;;;3.40;;
20669;SDS011;10494;50.868;4.180;2024-02-15T05:22:10;7.90;;;2.92;;
20669;SDS011;10494;50.868;4.180;2024-02-15T05:24:36;10.23;;;3.97;;
20669;SDS011;10494;50.868;4.180;2024-02-15T05:27:04;11.30;;;3.63;;
20669;SDS011;10494;50.868;4.180;2024-02-15T05:29:29;13.27;;;3.55;;
20669;SDS011;10494;50.868;4.180;2024-02-15T05:31:59;7.78;;;2.88;;
20669;SDS011;10494;50.868;4.180;2024-02-15T05:34:26;7.78;;;3.15;;
20669;SDS011;10494;50.868;4.180;2024-02-15T05:36:51;9.98;;;2.92;;
20669;SDS011;10494;50.868;4.180;2024-02-15T05:39:17;10.30;;;2.90;;
20669;SDS011;10494;50.868;4.180;2024-02-15T05:41:46;9.93;;;2.85;;
20669;SDS011;10494;50.868;4.180;2024-02-15T05:44:12;7.10;;;2.50;;
20669;SDS011;10494;50.868;4.180;2024-02-15T05:46:39;10.10;;;2.67;;
20669;SDS011;10494;50.868;4.180;2024-02-15T05:49:05;7.72;;;2.45;;
20669;SDS011;10494;50.868;4.180;2024-02-15T05:51:31;9.23;;;2.88;;
20669;SDS011;10494;50.868;4.180;2024-02-15T05:53:57;10.63;;;2.72;;
20669;SDS011;10494;50.868;4.180;2024-02-15T05:56:25;8.45;;;2.50;;
20669;SDS011;10494;50.868;4.180;2024-02-15T05:58:51;6.18;;;2.25;;
20669;SDS011;10494;50.868;4.180;2024-02-15T06:01:17;11.00;;;2.58;;
20669;SDS011;10494;50.868;4.180;2024-02-15T06:03:43;9.15;;;2.65;;
20669;SDS011;10494;50.868;4.180;2024-02-15T06:06:10;9.85;;;2.63;;
20669;SDS011;10494;50.868;4.180;2024-02-15T06:08:37;9.13;;;2.67;;
20669;SDS011;10494;50.868;4.180;2024-02-15T06:11:03;9.57;;;2.67;;
20669;SDS011;10494;50.868;4.180;2024-02-15T06:13:30;10.77;;;2.88;;
20669;SDS011;10494;50.868;4.180;2024-02-15T06:15:56;12.02;;;3.05;;
20669;SDS011;10494;50.868;4.180;2024-02-15T06:18:29;12.25;;;3.63;;
20669;SDS011;10494;50.868;4.180;2024-02-15T06:20:57;13.50;;;3.05;;
20669;SDS011;10494;50.868;4.180;2024-02-15T06:23:24;11.25;;;3.63;;
20669;SDS011;10494;50.868;4.180;2024-02-15T06:25:52;12.27;;;4.15;;
20669;SDS011;10494;50.868;4.180;2024-02-15T06:28:19;9.18;;;3.45;;
20669;SDS011;10494;50.868;4.180;2024-02-15T06:31:09;10.80;;;2.95;;
20669;SDS011;10494;50.868;4.180;2024-02-15T06:33:55;5.95;;;2.72;;
20669;SDS011;10494;50.868;4.180;2024-02-15T06:36:49;12.43;;;2.97;;
20669;SDS011;10494;50.868;4.180;2024-02-15T06:39:34;8.43;;;2.92;;
20669;SDS011;10494;50.868;4.180;2024-02-15T06:42:03;11.35;;;3.05;;
20669;SDS011;10494;50.868;4.180;2024-02-15T06:44:29;8.27;;;2.92;;
20669;SDS011;10494;50.868;4.180;2024-02-15T06:46:55;12.45;;;2.78;;
20669;SDS011;10494;50.868;4.180;2024-02-15T06:49:21;7.88;;;2.88;;
20669;SDS011;10494;50.868;4.180;2024-02-15T06:51:49;9.55;;;3.55;;
20669;SDS011;10494;50.868;4.180;2024-02-15T06:54:15;11.15;;;2.90;;
20669;SDS011;10494;50.868;4.180;2024-02-15T06:56:43;10.68;;;3.40;;
20669;SDS011;10494;50.868;4.180;2024-02-15T06:59:12;12.50;;;3.17;;
20669;SDS011;10494;50.868;4.180;2024-02-15T07:01:43;9.57;;;2.95;;
20669;SDS011;10494;50.868;4.180;2024-02-15T07:04:10;12.43;;;3.00;;
20669;SDS011;10494;50.868;4.180;2024-02-15T07:06:36;9.35;;;4.05;;
20669;SDS011;10494;50.868;4.180;2024-02-15T07:09:03;13.88;;;3.17;;
20669;SDS011;10494;50.868;4.180;2024-02-15T07:11:29;10.18;;;3.08;;
20669;SDS011;10494;50.868;4.180;2024-02-15T07:13:56;8.23;;;2.78;;
20669;SDS011;10494;50.868;4.180;2024-02-15T07:16:22;7.32;;;2.75;;
20669;SDS011;10494;50.868;4.180;2024-02-15T07:18:48;6.25;;;2.20;;
20669;SDS011;10494;50.868;4.180;2024-02-15T07:21:14;5.07;;;2.25;;
20669;SDS011;10494;50.868;4.180;2024-02-15T07:23:44;4.43;;;2.53;;
20669;SDS011;10494;50.868;4.180;2024-02-15T07:26:09;8.82;;;3.30;;
20669;SDS011;10494;50.868;4.180;2024-02-15T07:28:37;6.97;;;2.88;;
20669;SDS011;10494;50.868;4.180;2024-02-15T07:31:03;7.90;;;2.90;;
20669;SDS011;10494;50.868;4.180;2024-02-15T07:33:28;9.23;;;3.28;;
20669;SDS011;10494;50.868;4.180;2024-02-15T07:35:54;11.40;;;3.35;;
20669;SDS011;10494;50.868;4.180;2024-02-15T07:38:21;11.93;;;4.03;;
20669;SDS011;10494;50.868;4.180;2024-02-15T07:40:48;12.45;;;4.15;;
20669;SDS011;10494;50.868;4.180;2024-02-15T07:43:14;8.30;;;3.95;;
20669;SDS011;10494;50.868;4.180;2024-02-15T07:45:40;9.52;;;4.80;;
20669;SDS011;10494;50.868;4.180;2024-02-15T07:48:06;17.65;;;4.80;;
20669;SDS011;10494;50.868;4.180;2024-02-15T07:50:31;13.02;;;5.18;;
20669;SDS011;10494;50.868;4.180;2024-02-15T07:52:57;13.85;;;5.28;;
20669;SDS011;10494;50.868;4.180;2024-02-15T07:55:23;19.20;;;6.45;;
20669;SDS011;10494;50.868;4.180;2024-02-15T07:57:49;15.43;;;5.97;;
20669;SDS011;10494;50.868;4.180;2024-02-15T08:00:18;15.93;;;6.75;;
20669;SDS011;10494;50.868;4.180;2024-02-15T08:02:44;14.65;;;6.60;;
20669;SDS011;10494;50.868;4.180;2024-02-15T08:05:11;15.88;;;6.68;;
20669;SDS011;10494;50.868;4.180;2024-02-15T08:07:41;14.05;;;6.10;;
20669;SDS011;10494;50.868;4.180;2024-02-15T08:10:12;15.10;;;6.00;;
20669;SDS011;10494;50.868;4.180;2024-02-15T08:12:42;18.48;;;7.03;;
20669;SDS011;10494;50.868;4.180;2024-02-15T08:15:09;16.70;;;6.00;;
20669;SDS011;10494;50.868;4.180;2024-02-15T08:17:39;16.05;;;6.40;;
20669;SDS011;10494;50.868;4.180;2024-02-15T08:20:12;19.52;;;5.32;;
20669;SDS011;10494;50.868;4.180;2024-02-15T08:22:38;13.27;;;5.75;;
20669;SDS011;10494;50.868;4.180;2024-02-15T08:25:08;23.30;;;6.53;;
20669;SDS011;10494;50.868;4.180;2024-02-15T08:27:46;14.57;;;5.75;;
20669;SDS011;10494;50.868;4.180;2024-02-15T08:30:14;14.02;;;4.57;;
20669;SDS011;10494;50.868;4.180;2024-02-15T08:32:41;13.50;;;5.57;;
20669;SDS011;10494;50.868;4.180;2024-02-15T08:35:07;17.02;;;5.35;;
20669;SDS011;10494;50.868;4.180;2024-02-15T08:37:35;13.30;;;4.93;;
20669;SDS011;10494;50.868;4.180;2024-02-15T08:40:03;12.50;;;5.65;;
20669;SDS011;10494;50.868;4.180;2024-02-15T08:42:39;15.40;;;4.82;;
20669;SDS011;10494;50.868;4.180;2024-02-15T08:45:06;12.73;;;4.47;;
20669;SDS011;10494;50.868;4.180;2024-02-15T08:47:38;10.93;;;4.78;;
20669;SDS011;10494;50.868;4.180;2024-02-15T08:50:05;12.55;;;4.13;;
20669;SDS011;10494;50.868;4.180;2024-02-15T08:52:34;10.23;;;4.25;;
20669;SDS011;10494;50.868;4.180;2024-02-15T08:55:02;14.80;;;4.05;;
20669;SDS011;10494;50.868;4.180;2024-02-15T08:57:32;15.70;;;5.03;;
20669;SDS011;10494;50.868;4.180;2024-02-15T08:59:58;10.50;;;4.15;;
20669;SDS011;10494;50.868;4.180;2024-02-15T09:02:24;12.95;;;4.15;;
20669;SDS011;10494;50.868;4.180;2024-02-15T09:04:50;10.82;;;4.25;;
20669;SDS011;10494;50.868;4.180;2024-02-15T09:07:15;13.48;;;4.18;;
20669;SDS011;10494;50.868;4.180;2024-02-15T09:09:41;8.88;;;3.63;;
20669;SDS011;10494;50.868;4.180;2024-02-15T09:12:07;12.35;;;4.07;;
20669;SDS011;10494;50.868;4.180;2024-02-15T09:14:33;12.48;;;4.53;;
20669;SDS011;10494;50.868;4.180;2024-02-15T09:16:59;11.85;;;4.43;;
20669;SDS011;10494;50.868;4.180;2024-02-15T09:19:25;16.15;;;4.25;;
20669;SDS011;10494;50.868;4.180;2024-02-15T09:21:51;12.07;;;3.90;;
20669;SDS011;10494;50.868;4.180;2024-02-15T09:24:16;10.10;;;3.60;;
20669;SDS011;10494;50.868;4.180;2024-02-15T09:26:42;10.07;;;3.60;;
20669;SDS011;10494;50.868;4.180;2024-02-15T09:29:09;11.98;;;3.22;;
20669;SDS011;10494;50.868;4.180;2024-02-15T09:31:35;13.02;;;3.60;;
20669;SDS011;10494;50.868;4.180;2024-02-15T09:34:01;8.23;;;3.10;;
20669;SDS011;10494;50.868;4.180;2024-02-15T09:36:35;10.60;;;3.65;;
20669;SDS011;10494;50.868;4.180;2024-02-15T09:39:03;7.50;;;3.13;;
20669;SDS011;10494;50.868;4.180;2024-02-15T09:41:28;8.48;;;3.17;;
20669;SDS011;10494;50.868;4.180;2024-02-15T09:43:54;9.45;;;2.97;;
20669;SDS011;10494;50.868;4.180;2024-02-15T09:46:20;9.05;;;2.78;;
20669;SDS011;10494;50.868;4.180;2024-02-15T09:48:47;8.88;;;3.22;;
20669;SDS011;10494;50.868;4.180;2024-02-15T09:51:23;9.93;;;3.42;;
20669;SDS011;10494;50.868;4.180;2024-02-15T09:53:50;7.13;;;2.50;;
20669;SDS011;10494;50.868;4.180;2024-02-15T09:56:16;5.75;;;2.40;;
20669;SDS011;10494;50.868;4.180;2024-02-15T09:58:43;7.20;;;2.17;;
20669;SDS011;10494;50.868;4.180;2024-02-15T10:01:10;6.20;;;2.50;;
20669;SDS011;10494;50.868;4.180;2024-02-15T10:03:37;5.93;;;2.33;;
20669;SDS011;10494;50.868;4.180;2024-02-15T10:06:05;7.60;;;2.30;;
20669;SDS011;10494;50.868;4.180;2024-02-15T10:08:31;5.78;;;1.80;;
20669;SDS011;10494;50.868;4.180;2024-02-15T10:11:09;3.60;;;1.52;;
20669;SDS011;10494;50.868;4.180;2024-02-15T10:13:35;5.28;;;1.52;;
20669;SDS011;10494;50.868;4.180;2024-02-15T10:16:18;5.38;;;1.77;;
20669;SDS011;10494;50.868;4.180;2024-02-15T10:18:44;3.45;;;1.50;;
20669;SDS011;10494;50.868;4.180;2024-02-15T10:21:23;3.83;;;1.42;;
20669;SDS011;10494;50.868;4.180;2024-02-15T10:24:01;4.22;;;1.45;;
20669;SDS011;10494;50.868;4.180;2024-02-15T10:26:31;4.88;;;1.40;;
20669;SDS011;10494;50.868;4.180;2024-02-15T10:29:07;7.45;;;1.80;;
20669;SDS011;10494;50.868;4.180;2024-02-15T10:31:35;8.02;;;1.35;;
20669;SDS011;10494;50.868;4.180;2024-02-15T10:34:06;5.38;;;2.00;;
20669;SDS011;10494;50.868;4.180;2024-02-15T10:36:33;5.47;;;1.80;;
20669;SDS011;10494;50.868;4.180;2024-02-15T10:39:32;6.65;;;2.13;;
20669;SDS011;10494;50.868;4.180;2024-02-15T10:41:53;5.80;;;1.90;;
20669;SDS011;10494;50.868;4.180;2024-02-15T10:44:23;7.20;;;1.73;;
20669;SDS011;10494;50.868;4.180;2024-02-15T10:46:51;4.05;;;1.55;;
20669;SDS011;10494;50.868;4.180;2024-02-15T10:49:18;7.25;;;2.28;;
20669;SDS011;10494;50.868;4.180;2024-02-15T10:51:44;2.58;;;1.25;;
20669;SDS011;10494;50.868;4.180;2024-02-15T10:54:15;5.43;;;1.58;;
20669;SDS011;10494;50.868;4.180;2024-02-15T10:56:49;4.72;;;1.60;;
20669;SDS011;10494;50.868;4.180;2024-02-15T10:59:21;3.78;;;1.42;;
20669;SDS011;10494;50.868;4.180;2024-02-15T11:01:54;3.13;;;1.48;;
20669;SDS011;10494;50.868;4.180;2024-02-15T11:04:25;5.00;;;1.70;;
20669;SDS011;10494;50.868;4.180;2024-02-15T11:06:57;3.40;;;1.77;;
20669;SDS011;10494;50.868;4.180;2024-02-15T11:09:23;4.25;;;1.80;;
20669;SDS011;10494;50.868;4.180;2024-02-15T11:11:53;2.65;;;1.20;;
20669;SDS011;10494;50.868;4.180;2024-02-15T11:14:24;4.18;;;1.80;;
20669;SDS011;10494;50.868;4.180;2024-02-15T11:16:54;4.72;;;1.45;;
20669;SDS011;10494;50.868;4.180;2024-02-15T11:22:07;2.40;;;1.40;;
20669;SDS011;10494;50.868;4.180;2024-02-15T11:24:46;4.45;;;1.42;;
20669;SDS011;10494;50.868;4.180;2024-02-15T11:27:25;3.42;;;1.50;;
20669;SDS011;10494;50.868;4.180;2024-02-15T11:29:58;2.58;;;1.20;;
20669;SDS011;10494;50.868;4.180;2024-02-15T11:32:41;3.55;;;1.25;;
20669;SDS011;10494;50.868;4.180;2024-02-15T11:35:18;5.03;;;1.33;;
20669;SDS011;10494;50.868;4.180;2024-02-15T11:43:07;3.83;;;1.40;;
20669;SDS011;10494;50.868;4.180;2024-02-15T11:45:34;3.42;;;1.80;;
20669;SDS011;10494;50.868;4.180;2024-02-15T11:48:09;5.53;;;1.67;;
20669;SDS011;10494;50.868;4.180;2024-02-15T11:50:36;2.40;;;1.25;;
20669;SDS011;10494;50.868;4.180;2024-02-15T11:53:06;3.00;;;1.48;;
20669;SDS011;10494;50.868;4.180;2024-02-15T11:55:36;2.45;;;1.15;;
20669;SDS011;10494;50.868;4.180;2024-02-15T11:58:03;6.25;;;1.45;;
20669;SDS011;10494;50.868;4.180;2024-02-15T12:00:30;2.88;;;1.33;;
20669;SDS011;10494;50.868;4.180;2024-02-15T12:03:15;3.78;;;1.35;;
20669;SDS011;10494;50.868;4.180;2024-02-15T12:06:00;2.17;;;1.45;;
20669;SDS011;10494;50.868;4.180;2024-02-15T12:08:45;3.58;;;1.27;;
20669;SDS011;10494;50.868;4.180;2024-02-15T12:11:30;3.05;;;0.98;;
20669;SDS011;10494;50.868;4.180;2024-02-15T12:14:15;2.38;;;1.10;;
20669;SDS011;10494;50.868;4.180;2024-02-15T12:17:03;3.30;;;1.48;;
20669;SDS011;10494;50.868;4.180;2024-02-15T12:19:48;3.58;;;1.55;;
20669;SDS011;10494;50.868;4.180;2024-02-15T12:22:23;4.40;;;1.30;;
20669;SDS011;10494;50.868;4.180;2024-02-15T12:27:21;4.35;;;1.55;;
20669;SDS011;10494;50.868;4.180;2024-02-15T12:29:53;3.70;;;1.38;;
20669;SDS011;10494;50.868;4.180;2024-02-15T12:32:20;2.97;;;1.60;;
20669;SDS011;10494;50.868;4.180;2024-02-15T12:34:47;3.55;;;1.50;;
20669;SDS011;10494;50.868;4.180;2024-02-15T12:37:12;4.47;;;1.73;;
20669;SDS011;10494;50.868;4.180;2024-02-15T12:39:38;2.95;;;1.30;;
20669;SDS011;10494;50.868;4.180;2024-02-15T12:42:04;6.97;;;1.67;;
20669;SDS011;10494;50.868;4.180;2024-02-15T12:44:32;2.42;;;1.23;;
20669;SDS011;10494;50.868;4.180;2024-02-15T12:46:59;2.22;;;1.25;;
20669;SDS011;10494;50.868;4.180;2024-02-15T12:51:51;3.65;;;1.15;;
20669;SDS011;10494;50.868;4.180;2024-02-15T12:54:22;6.18;;;1.20;;
20669;SDS011;10494;50.868;4.180;2024-02-15T12:56:48;4.30;;;1.33;;
20669;SDS011;10494;50.868;4.180;2024-02-15T12:59:14;2.95;;;1.20;;
20669;SDS011;10494;50.868;4.180;2024-02-15T13:01:41;2.22;;;1.30;;
20669;SDS011;10494;50.868;4.180;2024-02-15T13:04:07;2.33;;;1.00;;
20669;SDS011;10494;50.868;4.180;2024-02-15T13:06:33;2.63;;;1.05;;
20669;SDS011;10494;50.868;4.180;2024-02-15T13:09:01;1.60;;;1.15;;
20669;SDS011;10494;50.868;4.180;2024-02-15T13:11:30;2.22;;;1.30;;
20669;SDS011;10494;50.868;4.180;2024-02-15T13:13:57;2.95;;;1.23;;
20669;SDS011;10494;50.868;4.180;2024-02-15T13:16:22;4.95;;;1.10;;
20669;SDS011;10494;50.868;4.180;2024-02-15T13:18:48;3.17;;;1.17;;
20669;SDS011;10494;50.868;4.180;2024-02-15T13:21:14;3.63;;;1.25;;
20669;SDS011;10494;50.868;4.180;2024-02-15T13:23:40;3.50;;;1.15;;
20669;SDS011;10494;50.868;4.180;2024-02-15T13:26:05;5.97;;;1.00;;
20669;SDS011;10494;50.868;4.180;2024-02-15T13:28:33;4.22;;;1.15;;
20669;SDS011;10494;50.868;4.180;2024-02-15T13:30:58;4.47;;;1.05;;
20669;SDS011;10494;50.868;4.180;2024-02-15T13:33:24;2.38;;;1.10;;
20669;SDS011;10494;50.868;4.180;2024-02-15T13:35:51;6.80;;;1.23;;
20669;SDS011;10494;50.868;4.180;2024-02-15T13:38:17;1.60;;;0.90;;
20669;SDS011;10494;50.868;4.180;2024-02-15T13:40:47;2.35;;;0.93;;
20669;SDS011;10494;50.868;4.180;2024-02-15T13:43:17;2.03;;;0.95;;
20669;SDS011;10494;50.868;4.180;2024-02-15T13:45:43;4.00;;;1.10;;
20669;SDS011;10494;50.868;4.180;2024-02-15T13:48:10;2.85;;;0.95;;
20669;SDS011;10494;50.868;4.180;2024-02-15T13:50:39;4.03;;;1.08;;
20669;SDS011;10494;50.868;4.180;2024-02-15T13:53:05;2.22;;;1.00;;
20669;SDS011;10494;50.868;4.180;2024-02-15T13:55:31;2.15;;;1.10;;
20669;SDS011;10494;50.868;4.180;2024-02-15T13:57:57;2.63;;;1.10;;
20669;SDS011;10494;50.868;4.180;2024-02-15T14:00:25;3.10;;;1.15;;
20669;SDS011;10494;50.868;4.180;2024-02-15T14:03:02;2.47;;;1.30;;
20669;SDS011;10494;50.868;4.180;2024-02-15T14:05:29;6.40;;;1.33;;
20669;SDS011;10494;50.868;4.180;2024-02-15T14:07:56;1.80;;;1.23;;
20669;SDS011;10494;50.868;4.180;2024-02-15T14:10:22;1.92;;;1.20;;
20669;SDS011;10494;50.868;4.180;2024-02-15T14:12:49;2.45;;;1.33;;
20669;SDS011;10494;50.868;4.180;2024-02-15T14:15:36;2.08;;;1.13;;
20669;SDS011;10494;50.868;4.180;2024-02-15T14:18:09;2.83;;;1.15;;
20669;SDS011;10494;50.868;4.180;2024-02-15T14:20:38;3.28;;;1.10;;
20669;SDS011;10494;50.868;4.180;2024-02-15T14:23:04;5.30;;;1.20;;
20669;SDS011;10494;50.868;4.180;2024-02-15T14:25:38;1.27;;;0.90;;
20669;SDS011;10494;50.868;4.180;2024-02-15T14:28:04;2.97;;;1.17;;
20669;SDS011;10494;50.868;4.180;2024-02-15T14:30:33;6.03;;;1.35;;
20669;SDS011;10494;50.868;4.180;2024-02-15T14:33:17;1.67;;;1.00;;
20669;SDS011;10494;50.868;4.180;2024-02-15T14:35:44;2.55;;;0.80;;
20669;SDS011;10494;50.868;4.180;2024-02-15T14:38:11;3.70;;;1.00;;
20669;SDS011;10494;50.868;4.180;2024-02-15T14:40:44;4.32;;;1.10;;
20669;SDS011;10494;50.868;4.180;2024-02-15T14:43:15;1.83;;;0.88;;
20669;SDS011;10494;50.868;4.180;2024-02-15T14:45:42;1.60;;;0.90;;
20669;SDS011;10494;50.868;4.180;2024-02-15T14:48:08;5.00;;;0.98;;
20669;SDS011;10494;50.868;4.180;2024-02-15T14:50:38;2.70;;;0.80;;
20669;SDS011;10494;50.868;4.180;2024-02-15T14:53:07;1.73;;;0.90;;
20669;SDS011;10494;50.868;4.180;2024-02-15T14:55:36;2.55;;;1.10;;
20669;SDS011;10494;50.868;4.180;2024-02-15T14:58:07;2.70;;;1.00;;
20669;SDS011;10494;50.868;4.180;2024-02-15T15:00:34;1.95;;;1.02;;